sensor_id;sensor_type;location;lat;lon;timestamp;temperature;humidity
41592;DHT22;28026;48.562;14.440;2022-08-18T00:00:00;22.60;96.00
41592;DHT22;28026;48.562;14.440;2022-08-18T00:02:31;22.60;95.90
41592;DHT22;28026;48.562;14.440;2022-08-18T00:05:03;22.20;98.20
41592;DHT22;28026;48.562;14.440;2022-08-18T00:07:35;22.10;98.10
41592;DHT22;28026;48.562;14.440;2022-08-18T00:10:06;22.00;98.40
41592;DHT22;28026;48.562;14.440;2022-08-18T00:12:40;22.00;98.60
41592;DHT22;28026;48.562;14.440;2022-08-18T00:15:14;22.00;98.20
41592;DHT22;28026;48.562;14.440;2022-08-18T00:17:47;22.00;98.50
41592;DHT22;28026;48.562;14.440;2022-08-18T00:20:21;21.90;98.50
41592;DHT22;28026;48.562;14.440;2022-08-18T00:22:54;22.00;98.30
41592;DHT22;28026;48.562;14.440;2022-08-18T00:25:28;22.00;98.20
41592;DHT22;28026;48.562;14.440;2022-08-18T00:27:59;21.90;98.90
41592;DHT22;28026;48.562;14.440;2022-08-18T00:30:30;21.90;99.30
41592;DHT22;28026;48.562;14.440;2022-08-18T00:33:02;21.80;99.10
41592;DHT22;28026;48.562;14.440;2022-08-18T00:35:36;21.80;99.10
41592;DHT22;28026;48.562;14.440;2022-08-18T00:38:08;21.80;99.50
41592;DHT22;28026;48.562;14.440;2022-08-18T00:40:43;21.70;99.80
41592;DHT22;28026;48.562;14.440;2022-08-18T00:43:41;21.50;99.90
41592;DHT22;28026;48.562;14.440;2022-08-18T00:46:19;21.40;99.90
41592;DHT22;28026;48.562;14.440;2022-08-18T00:48:54;21.20;99.90
41592;DHT22;28026;48.562;14.440;2022-08-18T00:51:40;21.20;99.90
41592;DHT22;28026;48.562;14.440;2022-08-18T00:54:29;21.00;99.90
41592;DHT22;28026;48.562;14.440;2022-08-18T00:57:05;21.00;99.90
41592;DHT22;28026;48.562;14.440;2022-08-18T00:59:49;21.00;99.90
41592;DHT22;28026;48.562;14.440;2022-08-18T01:02:35;21.00;99.90
41592;DHT22;28026;48.562;14.440;2022-08-18T01:05:20;21.10;99.90
41592;DHT22;28026;48.562;14.440;2022-08-18T01:08:00;21.10;99.90
41592;DHT22;28026;48.562;14.440;2022-08-18T01:10:32;20.90;99.90
41592;DHT22;28026;48.562;14.440;2022-08-18T01:13:04;20.90;99.90
41592;DHT22;28026;48.562;14.440;2022-08-18T01:15:37;20.80;99.90
41592;DHT22;28026;48.562;14.440;2022-08-18T01:18:10;20.70;99.90
41592;DHT22;28026;48.562;14.440;2022-08-18T01:21:18;20.60;99.90
41592;DHT22;28026;48.562;14.440;2022-08-18T01:24:19;20.40;99.90
41592;DHT22;28026;48.562;14.440;2022-08-18T01:27:17;20.40;99.90
41592;DHT22;28026;48.562;14.440;2022-08-18T01:29:49;20.10;99.90
41592;DHT22;28026;48.562;14.440;2022-08-18T01:32:22;20.20;99.90
41592;DHT22;28026;48.562;14.440;2022-08-18T01:34:53;20.20;99.90
41592;DHT22;28026;48.562;14.440;2022-08-18T01:37:24;20.30;99.90
41592;DHT22;28026;48.562;14.440;2022-08-18T01:39:55;20.10;99.90
41592;DHT22;28026;48.562;14.440;2022-08-18T01:42:26;20.00;99.90
41592;DHT22;28026;48.562;14.440;2022-08-18T01:44:57;20.10;99.90
41592;DHT22;28026;48.562;14.440;2022-08-18T01:47:28;20.20;99.90
41592;DHT22;28026;48.562;14.440;2022-08-18T01:50:02;20.30;99.90
41592;DHT22;28026;48.562;14.440;2022-08-18T01:52:35;20.20;99.90
41592;DHT22;28026;48.562;14.440;2022-08-18T01:55:06;20.10;99.90
41592;DHT22;28026;48.562;14.440;2022-08-18T01:57:39;20.10;99.90
41592;DHT22;28026;48.562;14.440;2022-08-18T02:00:15;20.10;99.90
41592;DHT22;28026;48.562;14.440;2022-08-18T02:02:48;20.20;99.90
41592;DHT22;28026;48.562;14.440;2022-08-18T02:05:26;20.30;99.90
41592;DHT22;28026;48.562;14.440;2022-08-18T02:08:05;20.30;99.90
41592;DHT22;28026;48.562;14.440;2022-08-18T02:10:38;20.20;99.90
41592;DHT22;28026;48.562;14.440;2022-08-18T02:13:09;20.10;99.90
41592;DHT22;28026;48.562;14.440;2022-08-18T02:15:40;20.10;99.90
41592;DHT22;28026;48.562;14.440;2022-08-18T02:18:17;20.00;99.90
41592;DHT22;28026;48.562;14.440;2022-08-18T02:20:55;20.00;99.90
41592;DHT22;28026;48.562;14.440;2022-08-18T02:23:35;19.90;99.90
41592;DHT22;28026;48.562;14.440;2022-08-18T02:26:09;19.90;99.90
41592;DHT22;28026;48.562;14.440;2022-08-18T02:28:44;19.70;99.90
41592;DHT22;28026;48.562;14.440;2022-08-18T02:31:19;19.70;99.90
41592;DHT22;28026;48.562;14.440;2022-08-18T02:33:52;19.80;99.90
41592;DHT22;28026;48.562;14.440;2022-08-18T02:36:23;19.90;99.90
41592;DHT22;28026;48.562;14.440;2022-08-18T02:38:54;20.00;99.90
41592;DHT22;28026;48.562;14.440;2022-08-18T02:41:26;20.10;99.90
41592;DHT22;28026;48.562;14.440;2022-08-18T02:43:58;20.10;99.90
41592;DHT22;28026;48.562;14.440;2022-08-18T02:46:29;20.10;99.90
41592;DHT22;28026;48.562;14.440;2022-08-18T02:49:01;19.70;99.90
41592;DHT22;28026;48.562;14.440;2022-08-18T02:51:35;18.80;99.90
41592;DHT22;28026;48.562;14.440;2022-08-18T02:54:06;18.40;99.90
41592;DHT22;28026;48.562;14.440;2022-08-18T02:56:40;18.30;99.90
41592;DHT22;28026;48.562;14.440;2022-08-18T02:59:18;18.50;99.90
41592;DHT22;28026;48.562;14.440;2022-08-18T03:01:54;18.70;99.90
41592;DHT22;28026;48.562;14.440;2022-08-18T03:04:28;18.90;99.90
41592;DHT22;28026;48.562;14.440;2022-08-18T03:07:02;19.10;99.90
41592;DHT22;28026;48.562;14.440;2022-08-18T03:09:36;19.10;99.90
41592;DHT22;28026;48.562;14.440;2022-08-18T03:12:09;19.00;99.90
41592;DHT22;28026;48.562;14.440;2022-08-18T03:14:40;19.00;99.90
41592;DHT22;28026;48.562;14.440;2022-08-18T03:17:11;19.00;99.90
41592;DHT22;28026;48.562;14.440;2022-08-18T03:19:44;19.10;99.90
41592;DHT22;28026;48.562;14.440;2022-08-18T03:22:15;19.20;99.90
41592;DHT22;28026;48.562;14.440;2022-08-18T03:24:46;19.00;99.90
41592;DHT22;28026;48.562;14.440;2022-08-18T03:27:17;18.80;99.90
41592;DHT22;28026;48.562;14.440;2022-08-18T03:29:48;18.70;99.90
41592;DHT22;28026;48.562;14.440;2022-08-18T03:32:20;18.80;99.90
41592;DHT22;28026;48.562;14.440;2022-08-18T03:34:52;18.90;99.90
41592;DHT22;28026;48.562;14.440;2022-08-18T03:37:23;18.90;99.90
41592;DHT22;28026;48.562;14.440;2022-08-18T03:39:54;19.20;99.90
41592;DHT22;28026;48.562;14.440;2022-08-18T03:42:25;19.40;99.90
41592;DHT22;28026;48.562;14.440;2022-08-18T03:44:56;19.60;99.90
41592;DHT22;28026;48.562;14.440;2022-08-18T03:47:27;19.20;99.90
41592;DHT22;28026;48.562;14.440;2022-08-18T03:49:58;19.10;99.90
41592;DHT22;28026;48.562;14.440;2022-08-18T03:52:29;19.20;99.90
41592;DHT22;28026;48.562;14.440;2022-08-18T03:55:00;19.30;99.90
41592;DHT22;28026;48.562;14.440;2022-08-18T03:57:31;19.00;99.90
41592;DHT22;28026;48.562;14.440;2022-08-18T04:00:03;18.90;99.90
41592;DHT22;28026;48.562;14.440;2022-08-18T04:02:34;19.00;99.90
41592;DHT22;28026;48.562;14.440;2022-08-18T04:05:06;19.00;99.90
41592;DHT22;28026;48.562;14.440;2022-08-18T04:07:40;19.00;99.90
41592;DHT22;28026;48.562;14.440;2022-08-18T04:10:12;19.00;99.90
41592;DHT22;28026;48.562;14.440;2022-08-18T04:12:43;19.10;99.90
41592;DHT22;28026;48.562;14.440;2022-08-18T04:15:15;19.10;99.90
41592;DHT22;28026;48.562;14.440;2022-08-18T04:17:46;19.10;99.90
41592;DHT22;28026;48.562;14.440;2022-08-18T04:20:17;19.00;99.90
41592;DHT22;28026;48.562;14.440;2022-08-18T04:22:48;19.00;99.90
41592;DHT22;28026;48.562;14.440;2022-08-18T04:25:19;19.00;99.90
41592;DHT22;28026;48.562;14.440;2022-08-18T04:27:51;19.10;99.90
41592;DHT22;28026;48.562;14.440;2022-08-18T04:30:27;19.10;99.90
41592;DHT22;28026;48.562;14.440;2022-08-18T04:33:00;19.20;99.90
41592;DHT22;28026;48.562;14.440;2022-08-18T04:35:31;19.10;99.90
41592;DHT22;28026;48.562;14.440;2022-08-18T04:38:02;19.00;99.90
41592;DHT22;28026;48.562;14.440;2022-08-18T04:40:33;19.10;99.90
41592;DHT22;28026;48.562;14.440;2022-08-18T04:43:07;19.20;99.90
41592;DHT22;28026;48.562;14.440;2022-08-18T04:45:44;19.20;99.90
41592;DHT22;28026;48.562;14.440;2022-08-18T04:48:16;19.40;99.90
41592;DHT22;28026;48.562;14.440;2022-08-18T04:50:47;19.50;99.90
41592;DHT22;28026;48.562;14.440;2022-08-18T04:53:18;19.50;99.90
41592;DHT22;28026;48.562;14.440;2022-08-18T04:56:07;19.20;99.90
41592;DHT22;28026;48.562;14.440;2022-08-18T04:58:38;19.10;99.90
41592;DHT22;28026;48.562;14.440;2022-08-18T05:01:09;19.00;99.90
41592;DHT22;28026;48.562;14.440;2022-08-18T05:03:40;19.10;99.90
41592;DHT22;28026;48.562;14.440;2022-08-18T05:06:11;19.00;99.90
41592;DHT22;28026;48.562;14.440;2022-08-18T05:08:42;19.10;99.90
41592;DHT22;28026;48.562;14.440;2022-08-18T05:11:14;19.30;99.90
41592;DHT22;28026;48.562;14.440;2022-08-18T05:13:45;19.70;99.90
41592;DHT22;28026;48.562;14.440;2022-08-18T05:16:18;19.90;99.90
41592;DHT22;28026;48.562;14.440;2022-08-18T05:18:50;20.00;99.90
41592;DHT22;28026;48.562;14.440;2022-08-18T05:21:22;20.20;99.90
41592;DHT22;28026;48.562;14.440;2022-08-18T05:23:54;20.30;99.90
41592;DHT22;28026;48.562;14.440;2022-08-18T05:26:26;20.40;99.90
41592;DHT22;28026;48.562;14.440;2022-08-18T05:28:57;20.60;99.90
41592;DHT22;28026;48.562;14.440;2022-08-18T05:31:28;20.80;99.90
41592;DHT22;28026;48.562;14.440;2022-08-18T05:34:00;20.90;99.90
41592;DHT22;28026;48.562;14.440;2022-08-18T05:36:42;21.10;99.90
41592;DHT22;28026;48.562;14.440;2022-08-18T05:39:24;21.40;99.90
41592;DHT22;28026;48.562;14.440;2022-08-18T05:42:15;21.60;99.90
41592;DHT22;28026;48.562;14.440;2022-08-18T05:44:53;21.90;99.90
41592;DHT22;28026;48.562;14.440;2022-08-18T05:47:28;22.10;99.90
41592;DHT22;28026;48.562;14.440;2022-08-18T05:56:00;22.40;99.90
41592;DHT22;28026;48.562;14.440;2022-08-18T05:58:54;22.50;99.90
41592;DHT22;28026;48.562;14.440;2022-08-18T06:01:33;22.50;99.90
41592;DHT22;28026;48.562;14.440;2022-08-18T06:07:04;22.30;99.90
41592;DHT22;28026;48.562;14.440;2022-08-18T06:09:47;22.70;99.90
41592;DHT22;28026;48.562;14.440;2022-08-18T06:21:21;22.40;99.90
41592;DHT22;28026;48.562;14.440;2022-08-18T06:24:14;22.50;99.90
41592;DHT22;28026;48.562;14.440;2022-08-18T06:27:22;22.20;99.90
41592;DHT22;28026;48.562;14.440;2022-08-18T06:30:21;21.90;99.90
41592;DHT22;28026;48.562;14.440;2022-08-18T06:37:03;21.90;99.90
41592;DHT22;28026;48.562;14.440;2022-08-18T06:40:04;22.30;99.90
41592;DHT22;28026;48.562;14.440;2022-08-18T06:42:36;22.60;99.90
41592;DHT22;28026;48.562;14.440;2022-08-18T06:45:11;22.50;99.90
41592;DHT22;28026;48.562;14.440;2022-08-18T06:51:26;22.40;99.90
41592;DHT22;28026;48.562;14.440;2022-08-18T06:56:51;22.40;99.90
41592;DHT22;28026;48.562;14.440;2022-08-18T06:59:31;22.70;99.90
41592;DHT22;28026;48.562;14.440;2022-08-18T07:02:22;22.80;99.90
41592;DHT22;28026;48.562;14.440;2022-08-18T07:05:27;22.80;99.90
41592;DHT22;28026;48.562;14.440;2022-08-18T07:08:19;22.80;99.90
41592;DHT22;28026;48.562;14.440;2022-08-18T07:11:23;23.00;99.90
41592;DHT22;28026;48.562;14.440;2022-08-18T07:14:19;23.10;99.90
41592;DHT22;28026;48.562;14.440;2022-08-18T07:17:11;23.00;99.90
41592;DHT22;28026;48.562;14.440;2022-08-18T07:20:23;23.30;99.90
41592;DHT22;28026;48.562;14.440;2022-08-18T07:23:02;23.50;99.90
41592;DHT22;28026;48.562;14.440;2022-08-18T07:25:40;23.60;99.90
41592;DHT22;28026;48.562;14.440;2022-08-18T07:28:33;23.30;99.90
41592;DHT22;28026;48.562;14.440;2022-08-18T07:34:11;23.50;99.90
41592;DHT22;28026;48.562;14.440;2022-08-18T07:36:57;23.90;99.90
41592;DHT22;28026;48.562;14.440;2022-08-18T07:39:42;24.20;99.90
41592;DHT22;28026;48.562;14.440;2022-08-18T07:45:44;24.90;99.90
41592;DHT22;28026;48.562;14.440;2022-08-18T07:48:17;25.00;99.90
41592;DHT22;28026;48.562;14.440;2022-08-18T07:56:58;24.70;99.90
41592;DHT22;28026;48.562;14.440;2022-08-18T08:03:05;25.10;99.90
41592;DHT22;28026;48.562;14.440;2022-08-18T08:05:47;25.20;99.90
41592;DHT22;28026;48.562;14.440;2022-08-18T08:12:21;23.90;99.90
41592;DHT22;28026;48.562;14.440;2022-08-18T08:16:02;24.30;99.90
41592;DHT22;28026;48.562;14.440;2022-08-18T08:19:01;24.90;99.90
41592;DHT22;28026;48.562;14.440;2022-08-18T08:21:55;24.90;99.90
41592;DHT22;28026;48.562;14.440;2022-08-18T08:24:41;24.70;99.90
41592;DHT22;28026;48.562;14.440;2022-08-18T08:31:11;24.60;99.90
41592;DHT22;28026;48.562;14.440;2022-08-18T08:37:20;25.50;99.90
41592;DHT22;28026;48.562;14.440;2022-08-18T08:43:16;25.40;99.90
41592;DHT22;28026;48.562;14.440;2022-08-18T08:46:45;25.70;99.90
41592;DHT22;28026;48.562;14.440;2022-08-18T08:49:36;25.90;99.90
41592;DHT22;28026;48.562;14.440;2022-08-18T08:55:23;25.40;99.90
41592;DHT22;28026;48.562;14.440;2022-08-18T09:01:10;25.60;99.90
41592;DHT22;28026;48.562;14.440;2022-08-18T09:11:23;26.10;99.90
41592;DHT22;28026;48.562;14.440;2022-08-18T09:15:08;25.90;99.90
41592;DHT22;28026;48.562;14.440;2022-08-18T09:23:42;26.90;99.90
41592;DHT22;28026;48.562;14.440;2022-08-18T09:26:40;26.90;99.90
41592;DHT22;28026;48.562;14.440;2022-08-18T09:35:13;26.50;99.90
41592;DHT22;28026;48.562;14.440;2022-08-18T09:38:17;26.20;99.90
41592;DHT22;28026;48.562;14.440;2022-08-18T09:41:22;26.40;99.90
41592;DHT22;28026;48.562;14.440;2022-08-18T09:51:59;27.80;99.90
41592;DHT22;28026;48.562;14.440;2022-08-18T09:54:58;27.90;99.90
41592;DHT22;28026;48.562;14.440;2022-08-18T09:57:36;27.10;99.90
41592;DHT22;28026;48.562;14.440;2022-08-18T10:10:59;27.10;99.90
41592;DHT22;28026;48.562;14.440;2022-08-18T10:32:20;30.10;98.70
41592;DHT22;28026;48.562;14.440;2022-08-18T10:39:10;31.60;98.00
41592;DHT22;28026;48.562;14.440;2022-08-18T10:41:24;30.50;97.30
41592;DHT22;28026;48.562;14.440;2022-08-18T10:44:01;30.60;97.50
41592;DHT22;28026;48.562;14.440;2022-08-18T10:46:40;30.50;96.80
41592;DHT22;28026;48.562;14.440;2022-08-18T10:58:21;31.10;97.40
41592;DHT22;28026;48.562;14.440;2022-08-18T11:07:26;30.40;96.50
41592;DHT22;28026;48.562;14.440;2022-08-18T11:10:01;30.60;96.30
41592;DHT22;28026;48.562;14.440;2022-08-18T11:18:40;30.00;96.30
41592;DHT22;28026;48.562;14.440;2022-08-18T11:24:07;31.50;96.60
41592;DHT22;28026;48.562;14.440;2022-08-18T11:26:56;31.90;95.80
41592;DHT22;28026;48.562;14.440;2022-08-18T11:29:35;33.10;95.10
41592;DHT22;28026;48.562;14.440;2022-08-18T11:32:25;33.70;94.60
41592;DHT22;28026;48.562;14.440;2022-08-18T11:35:21;34.30;93.60
41592;DHT22;28026;48.562;14.440;2022-08-18T11:38:04;32.60;92.20
41592;DHT22;28026;48.562;14.440;2022-08-18T11:40:45;32.30;93.90
41592;DHT22;28026;48.562;14.440;2022-08-18T11:43:33;32.90;93.60
41592;DHT22;28026;48.562;14.440;2022-08-18T11:46:27;33.30;91.70
41592;DHT22;28026;48.562;14.440;2022-08-18T11:49:11;33.50;91.60
41592;DHT22;28026;48.562;14.440;2022-08-18T11:52:00;34.30;91.60
41592;DHT22;28026;48.562;14.440;2022-08-18T11:55:03;34.50;90.30
41592;DHT22;28026;48.562;14.440;2022-08-18T11:57:50;35.00;89.20
41592;DHT22;28026;48.562;14.440;2022-08-18T12:05:55;32.40;90.40
41592;DHT22;28026;48.562;14.440;2022-08-18T12:11:34;33.10;89.20
41592;DHT22;28026;48.562;14.440;2022-08-18T12:14:21;32.50;90.10
41592;DHT22;28026;48.562;14.440;2022-08-18T12:16:57;32.60;89.20
41592;DHT22;28026;48.562;14.440;2022-08-18T12:19:29;33.00;89.70
41592;DHT22;28026;48.562;14.440;2022-08-18T12:22:01;32.60;88.60
41592;DHT22;28026;48.562;14.440;2022-08-18T12:24:47;32.70;89.90
41592;DHT22;28026;48.562;14.440;2022-08-18T12:27:21;32.10;89.80
41592;DHT22;28026;48.562;14.440;2022-08-18T12:29:56;31.70;90.50
41592;DHT22;28026;48.562;14.440;2022-08-18T12:32:31;31.70;90.40
41592;DHT22;28026;48.562;14.440;2022-08-18T12:35:06;32.00;90.20
41592;DHT22;28026;48.562;14.440;2022-08-18T12:37:43;31.00;89.90
41592;DHT22;28026;48.562;14.440;2022-08-18T12:40:14;30.40;92.10
41592;DHT22;28026;48.562;14.440;2022-08-18T12:42:48;31.00;90.50
41592;DHT22;28026;48.562;14.440;2022-08-18T12:45:21;31.50;90.60
41592;DHT22;28026;48.562;14.440;2022-08-18T12:47:52;31.80;90.70
41592;DHT22;28026;48.562;14.440;2022-08-18T12:50:23;32.40;90.40
41592;DHT22;28026;48.562;14.440;2022-08-18T12:52:54;32.30;90.00
41592;DHT22;28026;48.562;14.440;2022-08-18T12:55:27;32.30;90.50
41592;DHT22;28026;48.562;14.440;2022-08-18T12:58:03;32.00;90.40
41592;DHT22;28026;48.562;14.440;2022-08-18T13:00:35;31.90;91.00
41592;DHT22;28026;48.562;14.440;2022-08-18T13:03:07;32.30;90.60
41592;DHT22;28026;48.562;14.440;2022-08-18T13:05:38;32.80;89.80
41592;DHT22;28026;48.562;14.440;2022-08-18T13:08:18;32.80;90.20
41592;DHT22;28026;48.562;14.440;2022-08-18T13:10:51;33.00;90.60
41592;DHT22;28026;48.562;14.440;2022-08-18T13:13:22;32.40;90.70
41592;DHT22;28026;48.562;14.440;2022-08-18T13:15:53;32.80;90.30
41592;DHT22;28026;48.562;14.440;2022-08-18T13:18:25;32.40;89.00
41592;DHT22;28026;48.562;14.440;2022-08-18T13:20:57;32.60;88.30
41592;DHT22;28026;48.562;14.440;2022-08-18T13:23:29;32.20;88.20
41592;DHT22;28026;48.562;14.440;2022-08-18T13:26:02;32.60;90.00
41592;DHT22;28026;48.562;14.440;2022-08-18T13:28:37;32.90;88.40
41592;DHT22;28026;48.562;14.440;2022-08-18T13:31:09;32.50;89.90
41592;DHT22;28026;48.562;14.440;2022-08-18T13:33:40;32.30;90.10
41592;DHT22;28026;48.562;14.440;2022-08-18T13:36:12;32.40;89.70
41592;DHT22;28026;48.562;14.440;2022-08-18T13:38:43;32.70;90.40
41592;DHT22;28026;48.562;14.440;2022-08-18T13:41:14;32.70;90.20
41592;DHT22;28026;48.562;14.440;2022-08-18T13:43:45;32.40;90.50
41592;DHT22;28026;48.562;14.440;2022-08-18T13:46:18;32.60;91.10
41592;DHT22;28026;48.562;14.440;2022-08-18T13:48:50;31.60;91.30
41592;DHT22;28026;48.562;14.440;2022-08-18T13:51:23;31.50;92.00
41592;DHT22;28026;48.562;14.440;2022-08-18T13:53:54;32.20;91.40
41592;DHT22;28026;48.562;14.440;2022-08-18T13:56:25;31.80;91.10
41592;DHT22;28026;48.562;14.440;2022-08-18T13:58:56;31.50;91.20
41592;DHT22;28026;48.562;14.440;2022-08-18T14:01:27;31.70;92.00
41592;DHT22;28026;48.562;14.440;2022-08-18T14:03:58;32.10;91.40
41592;DHT22;28026;48.562;14.440;2022-08-18T14:06:29;32.10;91.20
41592;DHT22;28026;48.562;14.440;2022-08-18T14:09:00;31.40;91.90
41592;DHT22;28026;48.562;14.440;2022-08-18T14:11:32;31.10;92.20
41592;DHT22;28026;48.562;14.440;2022-08-18T14:14:06;31.50;92.60
41592;DHT22;28026;48.562;14.440;2022-08-18T14:16:37;31.50;92.50
41592;DHT22;28026;48.562;14.440;2022-08-18T14:19:09;31.60;91.90
41592;DHT22;28026;48.562;14.440;2022-08-18T14:21:58;31.20;91.90
41592;DHT22;28026;48.562;14.440;2022-08-18T14:24:48;30.70;92.50
41592;DHT22;28026;48.562;14.440;2022-08-18T14:27:38;30.50;92.90
41592;DHT22;28026;48.562;14.440;2022-08-18T14:30:12;30.20;92.90
41592;DHT22;28026;48.562;14.440;2022-08-18T14:32:44;30.10;92.60
41592;DHT22;28026;48.562;14.440;2022-08-18T14:35:16;30.20;93.10
41592;DHT22;28026;48.562;14.440;2022-08-18T14:37:48;30.30;93.80
41592;DHT22;28026;48.562;14.440;2022-08-18T14:40:19;30.00;94.10
41592;DHT22;28026;48.562;14.440;2022-08-18T14:42:50;30.00;94.00
41592;DHT22;28026;48.562;14.440;2022-08-18T14:45:23;30.00;94.10
41592;DHT22;28026;48.562;14.440;2022-08-18T14:47:55;30.00;94.40
41592;DHT22;28026;48.562;14.440;2022-08-18T14:50:26;30.00;94.30
41592;DHT22;28026;48.562;14.440;2022-08-18T14:52:58;30.00;94.20
41592;DHT22;28026;48.562;14.440;2022-08-18T14:55:29;30.00;94.20
41592;DHT22;28026;48.562;14.440;2022-08-18T14:58:00;29.60;95.00
41592;DHT22;28026;48.562;14.440;2022-08-18T15:00:31;29.40;95.40
41592;DHT22;28026;48.562;14.440;2022-08-18T15:03:02;29.20;95.70
41592;DHT22;28026;48.562;14.440;2022-08-18T15:05:35;29.20;95.90
41592;DHT22;28026;48.562;14.440;2022-08-18T15:08:07;29.10;96.20
41592;DHT22;28026;48.562;14.440;2022-08-18T15:10:38;29.20;96.60
41592;DHT22;28026;48.562;14.440;2022-08-18T15:13:10;29.00;96.10
41592;DHT22;28026;48.562;14.440;2022-08-18T15:15:41;28.20;96.30
41592;DHT22;28026;48.562;14.440;2022-08-18T15:18:13;27.00;98.70
41592;DHT22;28026;48.562;14.440;2022-08-18T15:20:44;26.40;98.80
41592;DHT22;28026;48.562;14.440;2022-08-18T15:23:33;26.30;98.60
41592;DHT22;28026;48.562;14.440;2022-08-18T15:26:24;26.10;99.50
41592;DHT22;28026;48.562;14.440;2022-08-18T15:28:55;26.20;99.80
41592;DHT22;28026;48.562;14.440;2022-08-18T15:31:26;25.80;99.90
41592;DHT22;28026;48.562;14.440;2022-08-18T15:33:57;25.10;99.90
41592;DHT22;28026;48.562;14.440;2022-08-18T15:36:29;25.20;99.90
41592;DHT22;28026;48.562;14.440;2022-08-18T15:39:02;25.00;99.90
41592;DHT22;28026;48.562;14.440;2022-08-18T15:41:42;24.80;99.90
41592;DHT22;28026;48.562;14.440;2022-08-18T15:44:18;24.70;99.90
41592;DHT22;28026;48.562;14.440;2022-08-18T15:46:51;24.60;99.90
41592;DHT22;28026;48.562;14.440;2022-08-18T15:49:22;24.00;99.90
41592;DHT22;28026;48.562;14.440;2022-08-18T15:51:53;23.40;99.90
41592;DHT22;28026;48.562;14.440;2022-08-18T15:54:24;23.20;99.90
41592;DHT22;28026;48.562;14.440;2022-08-18T15:56:55;22.90;99.90
41592;DHT22;28026;48.562;14.440;2022-08-18T15:59:27;22.80;99.90
41592;DHT22;28026;48.562;14.440;2022-08-18T16:01:58;22.90;99.90
41592;DHT22;28026;48.562;14.440;2022-08-18T16:04:30;22.90;99.90
41592;DHT22;28026;48.562;14.440;2022-08-18T16:07:01;23.20;99.90
41592;DHT22;28026;48.562;14.440;2022-08-18T16:09:32;23.40;99.90
41592;DHT22;28026;48.562;14.440;2022-08-18T16:12:03;23.50;99.90
41592;DHT22;28026;48.562;14.440;2022-08-18T16:14:39;23.70;99.90
41592;DHT22;28026;48.562;14.440;2022-08-18T16:17:10;23.70;99.90
41592;DHT22;28026;48.562;14.440;2022-08-18T16:19:41;23.80;99.90
41592;DHT22;28026;48.562;14.440;2022-08-18T16:22:12;23.80;99.90
41592;DHT22;28026;48.562;14.440;2022-08-18T16:24:43;23.70;99.90
41592;DHT22;28026;48.562;14.440;2022-08-18T16:27:14;23.60;99.90
41592;DHT22;28026;48.562;14.440;2022-08-18T16:29:46;23.60;99.90
41592;DHT22;28026;48.562;14.440;2022-08-18T16:32:18;23.60;99.90
41592;DHT22;28026;48.562;14.440;2022-08-18T16:34:49;23.20;99.90
41592;DHT22;28026;48.562;14.440;2022-08-18T16:37:21;22.70;99.90
41592;DHT22;28026;48.562;14.440;2022-08-18T16:39:53;23.00;99.90
41592;DHT22;28026;48.562;14.440;2022-08-18T16:42:24;23.30;99.90
41592;DHT22;28026;48.562;14.440;2022-08-18T16:44:55;23.40;99.90
41592;DHT22;28026;48.562;14.440;2022-08-18T16:47:26;23.40;99.90
41592;DHT22;28026;48.562;14.440;2022-08-18T16:49:57;23.20;99.90
41592;DHT22;28026;48.562;14.440;2022-08-18T16:52:28;23.00;99.90
41592;DHT22;28026;48.562;14.440;2022-08-18T16:54:59;22.90;99.90
41592;DHT22;28026;48.562;14.440;2022-08-18T16:57:31;22.80;99.90
41592;DHT22;28026;48.562;14.440;2022-08-18T17:00:22;22.80;99.90
41592;DHT22;28026;48.562;14.440;2022-08-18T17:03:14;22.80;99.90
41592;DHT22;28026;48.562;14.440;2022-08-18T17:06:09;22.40;99.90
41592;DHT22;28026;48.562;14.440;2022-08-18T17:08:45;22.20;99.90
41592;DHT22;28026;48.562;14.440;2022-08-18T17:11:18;22.30;99.90
41592;DHT22;28026;48.562;14.440;2022-08-18T17:13:50;22.20;99.90
41592;DHT22;28026;48.562;14.440;2022-08-18T17:16:22;22.10;99.90
41592;DHT22;28026;48.562;14.440;2022-08-18T17:18:56;22.20;99.90
41592;DHT22;28026;48.562;14.440;2022-08-18T17:21:30;21.90;99.90
41592;DHT22;28026;48.562;14.440;2022-08-18T17:24:06;21.90;99.90
41592;DHT22;28026;48.562;14.440;2022-08-18T17:29:41;21.50;99.90
41592;DHT22;28026;48.562;14.440;2022-08-18T17:35:23;21.60;99.90
41592;DHT22;28026;48.562;14.440;2022-08-18T17:38:09;21.50;99.90
41592;DHT22;28026;48.562;14.440;2022-08-18T17:41:03;21.40;99.90
41592;DHT22;28026;48.562;14.440;2022-08-18T17:43:37;21.30;99.90
41592;DHT22;28026;48.562;14.440;2022-08-18T17:46:19;21.20;99.90
41592;DHT22;28026;48.562;14.440;2022-08-18T17:51:49;21.10;99.90
41592;DHT22;28026;48.562;14.440;2022-08-18T17:54:41;21.00;99.90
41592;DHT22;28026;48.562;14.440;2022-08-18T17:57:22;20.90;99.90
41592;DHT22;28026;48.562;14.440;2022-08-18T18:00:14;21.00;99.90
41592;DHT22;28026;48.562;14.440;2022-08-18T18:02:47;21.10;99.90
41592;DHT22;28026;48.562;14.440;2022-08-18T18:05:20;21.00;99.90
41592;DHT22;28026;48.562;14.440;2022-08-18T18:07:52;20.90;99.90
41592;DHT22;28026;48.562;14.440;2022-08-18T18:10:45;20.90;99.90
41592;DHT22;28026;48.562;14.440;2022-08-18T18:13:26;21.00;99.90
41592;DHT22;28026;48.562;14.440;2022-08-18T18:16:20;21.00;99.90
41592;DHT22;28026;48.562;14.440;2022-08-18T18:19:01;20.90;99.90
41592;DHT22;28026;48.562;14.440;2022-08-18T18:21:42;20.70;99.90
41592;DHT22;28026;48.562;14.440;2022-08-18T18:24:14;20.60;99.90
41592;DHT22;28026;48.562;14.440;2022-08-18T18:26:45;20.60;99.90
41592;DHT22;28026;48.562;14.440;2022-08-18T18:29:20;20.50;99.90
41592;DHT22;28026;48.562;14.440;2022-08-18T18:32:02;20.40;99.90
41592;DHT22;28026;48.562;14.440;2022-08-18T18:35:10;20.50;99.90
41592;DHT22;28026;48.562;14.440;2022-08-18T18:37:48;20.50;99.90
41592;DHT22;28026;48.562;14.440;2022-08-18T18:40:41;20.40;99.90
41592;DHT22;28026;48.562;14.440;2022-08-18T18:43:34;20.40;99.90
41592;DHT22;28026;48.562;14.440;2022-08-18T18:49:22;20.30;99.90
41592;DHT22;28026;48.562;14.440;2022-08-18T18:55:03;20.10;99.90
41592;DHT22;28026;48.562;14.440;2022-08-18T19:01:34;19.70;99.90
41592;DHT22;28026;48.562;14.440;2022-08-18T19:04:20;19.70;99.90
41592;DHT22;28026;48.562;14.440;2022-08-18T19:07:16;19.60;99.90
41592;DHT22;28026;48.562;14.440;2022-08-18T19:10:28;19.70;99.90
41592;DHT22;28026;48.562;14.440;2022-08-18T19:13:15;19.50;99.90
41592;DHT22;28026;48.562;14.440;2022-08-18T19:16:00;19.50;99.90